createdAt,value
2022-08-30T00:01:14.231Z,17.53
2022-08-30T00:03:46.159Z,17.48
2022-08-30T00:06:15.841Z,17.44
2022-08-30T00:08:43.953Z,17.26
2022-08-30T00:11:14.247Z,17.15
2022-08-30T00:13:44.539Z,17.23
2022-08-30T00:16:12.599Z,17.15
2022-08-30T00:18:40.581Z,17.14
2022-08-30T00:21:09.008Z,17.09
2022-08-30T00:23:37.106Z,17.01
2022-08-30T00:26:05.477Z,16.99
2022-08-30T00:28:33.960Z,16.77
2022-08-30T00:31:02.535Z,16.83
2022-08-30T00:33:30.256Z,16.76
2022-08-30T00:35:57.715Z,16.62
2022-08-30T00:38:25.086Z,16.48
2022-08-30T00:40:53.122Z,16.38
2022-08-30T00:43:24.369Z,16.43
2022-08-30T00:45:55.290Z,16.45
2022-08-30T00:48:23.145Z,16.39
2022-08-30T00:51:02.367Z,16.41
2022-08-30T00:53:33.168Z,16.20
2022-08-30T00:56:01.401Z,15.95
2022-08-30T00:58:32.910Z,15.94
2022-08-30T01:01:01.450Z,15.82
2022-08-30T01:03:29.874Z,15.91
2022-08-30T01:05:57.489Z,15.75
2022-08-30T01:08:25.196Z,15.67
2022-08-30T01:10:53.674Z,15.96
2022-08-30T01:13:22.661Z,15.95
2022-08-30T01:15:50.918Z,15.77
2022-08-30T01:18:20.011Z,15.94
2022-08-30T01:20:52.585Z,15.86
2022-08-30T01:23:21.045Z,15.71
2022-08-30T01:25:50.277Z,15.76
2022-08-30T01:28:26.113Z,15.53
2022-08-30T01:30:54.281Z,15.57
2022-08-30T01:33:22.687Z,15.58
2022-08-30T01:35:56.442Z,15.63
2022-08-30T01:38:27.707Z,15.63
2022-08-30T01:41:12.539Z,15.78
2022-08-30T01:43:40.262Z,15.77
2022-08-30T01:46:08.161Z,15.68
2022-08-30T01:48:35.537Z,15.73
2022-08-30T01:51:03.134Z,15.38
2022-08-30T01:53:30.748Z,15.16
2022-08-30T01:55:58.317Z,15.33
2022-08-30T01:58:25.734Z,15.19
2022-08-30T02:00:53.315Z,14.98
2022-08-30T02:03:20.751Z,14.89
2022-08-30T02:05:48.371Z,14.85
2022-08-30T02:08:16.097Z,14.89
2022-08-30T02:10:43.516Z,14.90
2022-08-30T02:13:10.863Z,14.85
2022-08-30T02:15:41.655Z,14.81
2022-08-30T02:18:10.788Z,15.13
2022-08-30T02:20:39.889Z,14.99
2022-08-30T02:23:07.305Z,15.23
2022-08-30T02:25:34.849Z,15.39
2022-08-30T02:28:02.298Z,15.61
2022-08-30T02:30:29.687Z,15.64
2022-08-30T02:32:57.273Z,15.48
2022-08-30T02:35:24.629Z,15.15
2022-08-30T02:37:52.473Z,15.24
2022-08-30T02:40:22.085Z,15.26
2022-08-30T02:42:49.833Z,15.02
2022-08-30T02:45:17.264Z,15.01
2022-08-30T02:47:47.213Z,14.95
2022-08-30T02:50:15.239Z,14.75
2022-08-30T02:52:43.097Z,14.77
2022-08-30T02:55:16.640Z,14.87
2022-08-30T02:57:44.583Z,15.09
2022-08-30T03:00:15.185Z,15.31
2022-08-30T03:02:42.567Z,15.46
2022-08-30T03:05:12.995Z,15.21
2022-08-30T03:07:41.172Z,15.12
2022-08-30T03:10:09.304Z,15.17
2022-08-30T03:12:36.714Z,15.25
2022-08-30T03:15:05.932Z,15.26
2022-08-30T03:17:33.320Z,14.93
2022-08-30T03:20:02.220Z,15.03
2022-08-30T03:22:30.002Z,14.95
2022-08-30T03:25:01.621Z,15.08
2022-08-30T03:27:29.681Z,15.00
2022-08-30T03:29:57.176Z,15.03
2022-08-30T03:32:24.639Z,15.04
2022-08-30T03:34:51.952Z,15.12
2022-08-30T03:37:23.297Z,15.15
2022-08-30T03:39:53.304Z,15.12
2022-08-30T03:42:20.642Z,15.03
2022-08-30T03:44:50.508Z,14.85
2022-08-30T03:47:17.826Z,14.84
2022-08-30T03:49:45.242Z,14.88
2022-08-30T03:52:12.582Z,14.84
2022-08-30T03:54:40.391Z,14.90
2022-08-30T03:57:07.723Z,14.92
2022-08-30T03:59:38.905Z,14.77
2022-08-30T04:02:06.924Z,14.59
2022-08-30T04:04:34.289Z,14.22
2022-08-30T04:07:01.683Z,14.09
2022-08-30T04:09:28.965Z,13.90
2022-08-30T04:11:56.321Z,13.76
2022-08-30T04:14:23.738Z,13.66
2022-08-30T04:16:51.326Z,13.60
2022-08-30T04:19:18.783Z,13.55
2022-08-30T04:21:46.150Z,13.53
2022-08-30T04:24:13.856Z,13.56
2022-08-30T04:26:41.238Z,13.70
2022-08-30T04:29:11.588Z,13.84
2022-08-30T04:31:39.066Z,13.77
2022-08-30T04:34:06.422Z,13.64
2022-08-30T04:36:33.739Z,13.61
2022-08-30T04:39:01.108Z,13.65
2022-08-30T04:41:28.454Z,13.62
2022-08-30T04:43:55.881Z,13.62
2022-08-30T04:46:23.206Z,13.61
2022-08-30T04:48:50.616Z,13.67
2022-08-30T04:51:19.340Z,14.11
2022-08-30T04:53:46.877Z,14.44
2022-08-30T04:56:17.672Z,14.61
2022-08-30T04:58:46.986Z,14.47
2022-08-30T05:01:19.884Z,14.58
2022-08-30T05:03:48.682Z,14.51
2022-08-30T05:06:16.512Z,14.46
2022-08-30T05:08:46.006Z,14.45
2022-08-30T05:11:15.453Z,14.54
2022-08-30T05:13:43.754Z,14.65
2022-08-30T05:16:13.297Z,14.79
2022-08-30T05:18:40.648Z,15.06
2022-08-30T05:21:11.562Z,15.68
2022-08-30T05:23:40.225Z,16.42
2022-08-30T05:26:32.342Z,17.38
2022-08-30T05:29:00.354Z,18.12
2022-08-30T05:31:35.752Z,18.83
2022-08-30T05:34:04.221Z,19.30
2022-08-30T05:36:35.415Z,19.79
2022-08-30T05:39:02.421Z,20.34
2022-08-30T05:41:33.132Z,20.78
2022-08-30T05:44:03.756Z,21.08
2022-08-30T05:49:07.174Z,21.50
2022-08-30T05:51:42.867Z,21.50
2022-08-30T05:54:12.534Z,22.03
2022-08-30T05:56:42.221Z,22.59
2022-08-30T05:59:09.933Z,23.11
2022-08-30T06:01:44.426Z,23.23
2022-08-30T06:04:13.908Z,23.47
2022-08-30T06:06:43.269Z,23.92
2022-08-30T06:09:13.386Z,24.02
2022-08-30T06:11:40.837Z,24.58
2022-08-30T06:14:08.391Z,24.74
2022-08-30T06:16:38.964Z,24.35
2022-08-30T06:19:08.549Z,23.84
2022-08-30T06:21:38.002Z,23.80
2022-08-30T06:24:08.688Z,23.47
2022-08-30T06:26:45.144Z,23.88
2022-08-30T06:29:17.561Z,24.89
2022-08-30T06:31:45.174Z,24.93
2022-08-30T06:34:12.249Z,25.12
2022-08-30T06:36:39.828Z,25.71
2022-08-30T06:39:07.682Z,25.33
2022-08-30T06:41:37.305Z,24.89
2022-08-30T06:44:12.076Z,25.64
2022-08-30T06:46:39.424Z,25.56
2022-08-30T06:49:07.767Z,26.21
2022-08-30T06:51:39.982Z,27.01
2022-08-30T06:54:10.873Z,26.81
2022-08-30T06:56:42.457Z,26.67
2022-08-30T06:59:16.428Z,26.18
2022-08-30T07:01:43.750Z,26.50
2022-08-30T07:04:10.749Z,27.07
2022-08-30T07:06:37.657Z,26.91
2022-08-30T07:09:04.670Z,26.90
2022-08-30T07:11:36.640Z,26.95
2022-08-30T07:14:04.899Z,27.39
2022-08-30T07:16:32.787Z,27.50
2022-08-30T07:19:00.439Z,27.52
2022-08-30T07:21:34.841Z,27.82
2022-08-30T07:24:03.356Z,28.77
2022-08-30T07:26:37.938Z,29.16
2022-08-30T07:29:06.109Z,28.73
2022-08-30T07:31:34.703Z,28.61
2022-08-30T07:34:05.470Z,28.50
2022-08-30T07:36:33.297Z,29.09
2022-08-30T07:39:00.238Z,30.92
2022-08-30T07:41:35.662Z,30.78
2022-08-30T07:44:03.211Z,30.25
2022-08-30T07:46:30.401Z,29.85
2022-08-30T07:49:00.234Z,30.53
2022-08-30T07:51:29.451Z,30.51
2022-08-30T07:53:57.286Z,30.50
2022-08-30T07:56:25.563Z,30.59
2022-08-30T07:58:53.360Z,30.73
2022-08-30T08:01:21.828Z,31.44
2022-08-30T08:03:50.339Z,31.80
2022-08-30T08:06:20.312Z,31.79
2022-08-30T08:08:47.389Z,32.72
2022-08-30T08:11:27.576Z,31.45
2022-08-30T08:13:57.621Z,31.03
2022-08-30T08:16:28.959Z,30.51
2022-08-30T08:18:56.938Z,29.59
2022-08-30T08:21:25.485Z,29.37
2022-08-30T08:23:52.669Z,29.43
2022-08-30T08:26:21.034Z,28.62
2022-08-30T08:28:48.203Z,29.93
2022-08-30T08:31:31.387Z,31.26
2022-08-30T08:34:02.964Z,31.59
2022-08-30T08:36:31.316Z,31.79
2022-08-30T08:38:59.373Z,33.08
2022-08-30T08:41:41.939Z,32.31
2022-08-30T08:44:35.515Z,30.57
2022-08-30T08:47:11.629Z,30.81
2022-08-30T08:49:45.867Z,30.23
2022-08-30T08:53:10.816Z,30.11
2022-08-30T08:55:49.800Z,29.92
2022-08-30T08:58:43.836Z,31.52
2022-08-30T09:01:15.363Z,31.79
2022-08-30T09:03:43.200Z,32.05
2022-08-30T09:06:22.654Z,30.23
2022-08-30T09:08:50.584Z,30.74
2022-08-30T09:11:26.385Z,31.56
2022-08-30T09:13:54.693Z,31.29
2022-08-30T09:16:52.764Z,31.15
2022-08-30T09:19:52.720Z,29.96
2022-08-30T09:22:34.748Z,29.71
2022-08-30T09:25:32.372Z,29.21
2022-08-30T09:28:12.932Z,29.45
2022-08-30T09:30:40.649Z,29.21
2022-08-30T09:33:20.048Z,29.63
2022-08-30T09:35:54.457Z,31.87
2022-08-30T09:38:35.769Z,28.70
2022-08-30T09:41:50.070Z,27.91
2022-08-30T09:44:27.937Z,28.61
2022-08-30T09:46:57.815Z,28.79
2022-08-30T09:49:30.248Z,29.61
2022-08-30T09:52:24.544Z,30.12
2022-08-30T09:55:33.307Z,30.24
2022-08-30T09:58:08.236Z,30.00
2022-08-30T10:00:45.386Z,29.56
2022-08-30T10:03:36.314Z,28.67
2022-08-30T10:06:33.811Z,30.18
2022-08-30T10:09:24.268Z,32.23
2022-08-30T10:12:38.696Z,30.17
2022-08-30T10:15:26.681Z,29.67
2022-08-30T10:18:24.149Z,30.35
2022-08-30T10:20:58.025Z,32.93
2022-08-30T10:23:57.080Z,33.19
2022-08-30T10:26:30.520Z,30.85
2022-08-30T10:29:06.823Z,30.28
2022-08-30T10:31:46.264Z,29.42
2022-08-30T10:34:31.364Z,29.99
2022-08-30T10:37:16.571Z,29.65
2022-08-30T10:39:48.436Z,28.74
2022-08-30T10:42:24.608Z,29.21
2022-08-30T10:44:57.438Z,30.25
2022-08-30T10:47:40.704Z,30.36
2022-08-30T10:50:29.689Z,30.43
2022-08-30T10:53:24.642Z,30.13
2022-08-30T10:56:10.590Z,30.49
2022-08-30T10:58:41.820Z,32.26
2022-08-30T11:01:32.397Z,31.58
2022-08-30T11:04:30.583Z,30.65
2022-08-30T11:07:10.848Z,30.10
2022-08-30T11:10:16.266Z,28.75
2022-08-30T11:13:05.934Z,30.00
2022-08-30T11:15:37.818Z,32.15
2022-08-30T11:18:12.183Z,33.46
2022-08-30T11:20:47.254Z,33.95
2022-08-30T11:23:33.300Z,35.35
2022-08-30T11:26:06.400Z,35.81
2022-08-30T11:28:37.784Z,35.04
2022-08-30T11:31:06.722Z,35.46
2022-08-30T11:33:50.460Z,36.02
2022-08-30T11:36:37.529Z,34.27
2022-08-30T11:39:10.159Z,34.09
2022-08-30T11:41:42.070Z,34.50
2022-08-30T11:44:22.847Z,34.26
2022-08-30T11:46:55.051Z,34.56
2022-08-30T11:49:23.422Z,34.03
2022-08-30T11:52:27.445Z,33.78
2022-08-30T11:55:01.733Z,32.78
2022-08-30T11:58:00.323Z,32.19
2022-08-30T12:00:30.253Z,31.98
2022-08-30T12:03:07.069Z,31.86
2022-08-30T12:05:40.793Z,32.46
2022-08-30T12:08:09.890Z,31.35
2022-08-30T12:10:43.521Z,32.28
2022-08-30T12:13:32.457Z,31.98
2022-08-30T12:16:23.294Z,31.21
2022-08-30T12:19:00.880Z,31.34
2022-08-30T12:21:41.048Z,32.22
2022-08-30T12:24:19.020Z,31.91
2022-08-30T12:26:48.391Z,31.19
2022-08-30T12:29:21.033Z,30.79
2022-08-30T12:31:54.213Z,31.04
2022-08-30T12:34:36.761Z,31.33
2022-08-30T12:37:23.261Z,31.24
2022-08-30T12:40:11.272Z,29.84
2022-08-30T12:42:48.822Z,29.18
2022-08-30T12:45:21.019Z,28.89
2022-08-30T12:48:00.548Z,28.77
2022-08-30T12:50:37.870Z,29.13
2022-08-30T12:53:13.957Z,28.87
2022-08-30T12:55:59.964Z,29.34
2022-08-30T12:58:43.417Z,29.72
2022-08-30T13:01:31.301Z,29.76
2022-08-30T13:04:20.272Z,29.41
2022-08-30T13:06:55.688Z,29.77
2022-08-30T13:09:40.824Z,29.96
2022-08-30T13:12:22.574Z,30.19
2022-08-30T13:14:52.417Z,29.37
2022-08-30T13:17:21.410Z,29.30
2022-08-30T13:20:07.734Z,29.12
2022-08-30T13:22:37.534Z,29.16
2022-08-30T13:25:06.531Z,29.14
2022-08-30T13:27:36.717Z,29.14
2022-08-30T13:30:16.224Z,29.00
2022-08-30T13:32:45.019Z,28.74
2022-08-30T13:35:13.007Z,28.22
2022-08-30T13:37:49.465Z,28.24
2022-08-30T13:40:19.901Z,28.28
2022-08-30T13:42:47.631Z,28.20
2022-08-30T13:48:03.964Z,28.46
2022-08-30T13:50:31.619Z,28.65
2022-08-30T13:52:59.052Z,28.55
2022-08-30T13:55:26.407Z,28.50
2022-08-30T13:57:56.653Z,28.44
2022-08-30T14:00:26.133Z,28.34
2022-08-30T14:02:56.136Z,28.37
2022-08-30T14:05:48.155Z,28.41
2022-08-30T14:11:09.202Z,28.31
2022-08-30T14:13:36.950Z,28.56
2022-08-30T14:18:55.557Z,28.94
2022-08-30T14:21:24.771Z,28.69
2022-08-30T14:23:53.530Z,28.56
2022-08-30T14:26:24.416Z,28.22
2022-08-30T14:28:53.563Z,28.08
2022-08-30T14:31:21.043Z,28.15
2022-08-30T14:33:48.762Z,27.95
2022-08-30T14:36:16.980Z,27.98
2022-08-30T14:38:44.849Z,27.96
2022-08-30T14:41:12.261Z,27.88
2022-08-30T14:43:40.442Z,27.87
2022-08-30T14:46:09.014Z,28.00
2022-08-30T14:48:38.464Z,28.01
2022-08-30T14:51:20.815Z,28.07
2022-08-30T14:53:50.771Z,28.04
2022-08-30T14:56:19.949Z,28.05
2022-08-30T14:58:54.666Z,27.91
2022-08-30T15:01:22.589Z,27.95
2022-08-30T15:03:51.097Z,28.03
2022-08-30T15:06:19.017Z,27.89
2022-08-30T15:08:48.426Z,28.23
2022-08-30T15:11:18.318Z,28.53
2022-08-30T15:13:46.232Z,28.30
2022-08-30T15:16:15.526Z,28.30
2022-08-30T15:18:43.077Z,28.15
2022-08-30T15:21:11.210Z,28.07
2022-08-30T15:23:39.306Z,28.11
2022-08-30T15:26:08.110Z,28.17
2022-08-30T15:28:36.940Z,28.12
2022-08-30T15:31:08.788Z,28.07
2022-08-30T15:33:37.661Z,28.03
2022-08-30T15:36:06.675Z,28.03
2022-08-30T15:38:35.090Z,28.03
2022-08-30T15:41:06.746Z,28.08
2022-08-30T15:43:34.820Z,28.10
2022-08-30T15:46:18.735Z,27.95
2022-08-30T15:48:47.045Z,27.88
2022-08-30T15:51:16.737Z,27.91
2022-08-30T15:53:45.641Z,27.92
2022-08-30T15:56:13.625Z,27.81
2022-08-30T15:58:41.733Z,27.45
2022-08-30T16:01:09.762Z,27.50
2022-08-30T16:03:40.335Z,27.55
2022-08-30T16:06:19.537Z,27.51
2022-08-30T16:08:47.188Z,27.44
2022-08-30T16:11:16.876Z,27.37
2022-08-30T16:13:49.557Z,27.38
2022-08-30T16:16:19.608Z,27.30
2022-08-30T16:18:54.123Z,27.19
2022-08-30T16:21:24.753Z,27.11
2022-08-30T16:23:53.923Z,27.11
2022-08-30T16:26:21.925Z,27.08
2022-08-30T16:28:49.689Z,27.14
2022-08-30T16:31:17.852Z,27.12
2022-08-30T16:33:45.780Z,27.03
2022-08-30T16:36:13.995Z,26.99
2022-08-30T16:38:41.725Z,26.87
2022-08-30T16:41:11.660Z,26.83
2022-08-30T16:43:39.756Z,26.87
2022-08-30T16:46:11.247Z,26.79
2022-08-30T16:48:39.725Z,26.73
2022-08-30T16:51:14.754Z,26.64
2022-08-30T16:53:42.468Z,26.60
2022-08-30T16:56:15.959Z,26.50
2022-08-30T16:58:44.721Z,26.46
2022-08-30T17:01:13.363Z,26.36
2022-08-30T17:03:41.270Z,26.16
2022-08-30T17:06:09.002Z,26.09
2022-08-30T17:08:36.406Z,26.02
2022-08-30T17:11:04.346Z,25.96
2022-08-30T17:13:33.232Z,25.90
2022-08-30T17:16:00.674Z,25.80
2022-08-30T17:18:29.321Z,25.73
2022-08-30T17:20:56.778Z,25.70
2022-08-30T17:23:24.219Z,25.63
2022-08-30T17:25:51.649Z,25.59
2022-08-30T17:28:21.955Z,25.51
2022-08-30T17:30:49.742Z,25.44
2022-08-30T17:33:18.752Z,25.33
2022-08-30T17:35:46.241Z,25.25
2022-08-30T17:38:14.240Z,25.16
2022-08-30T17:40:41.817Z,25.12
2022-08-30T17:43:09.639Z,24.96
2022-08-30T17:45:37.478Z,24.87
2022-08-30T17:48:07.028Z,24.79
2022-08-30T17:50:36.049Z,24.82
2022-08-30T17:53:03.478Z,24.68
2022-08-30T17:55:30.977Z,24.60
2022-08-30T17:58:00.554Z,24.58
2022-08-30T18:00:28.281Z,24.43
2022-08-30T18:02:57.656Z,24.33
2022-08-30T18:05:25.404Z,24.21
2022-08-30T18:07:53.122Z,24.00
2022-08-30T18:10:28.586Z,23.82
2022-08-30T18:13:07.832Z,23.66
2022-08-30T18:15:36.156Z,23.48
2022-08-30T18:18:06.458Z,23.43
2022-08-30T18:20:33.829Z,23.43
2022-08-30T18:23:02.115Z,23.37
2022-08-30T18:25:29.529Z,23.28
2022-08-30T18:27:57.262Z,23.19
2022-08-30T18:30:33.175Z,23.28
2022-08-30T18:33:01.526Z,23.22
2022-08-30T18:35:28.863Z,23.10
2022-08-30T18:37:56.277Z,23.04
2022-08-30T18:40:23.635Z,23.06
2022-08-30T18:42:51.691Z,22.94
2022-08-30T18:45:19.043Z,22.85
2022-08-30T18:47:46.413Z,22.79
2022-08-30T18:50:13.962Z,22.92
2022-08-30T18:52:41.400Z,22.87
2022-08-30T18:55:12.602Z,22.85
2022-08-30T18:57:40.041Z,22.73
2022-08-30T19:00:09.616Z,22.64
2022-08-30T19:02:37.688Z,22.64
2022-08-30T19:05:05.796Z,22.65
2022-08-30T19:07:36.875Z,22.62
2022-08-30T19:10:06.883Z,22.59
2022-08-30T19:12:34.318Z,22.40
2022-08-30T19:15:01.922Z,22.34
2022-08-30T19:17:39.740Z,22.22
2022-08-30T19:20:09.851Z,22.24
2022-08-30T19:22:50.424Z,22.15
2022-08-30T19:25:25.520Z,22.08
2022-08-30T19:27:52.900Z,22.00
2022-08-30T19:30:29.318Z,22.10
2022-08-30T19:32:57.393Z,22.11
2022-08-30T19:35:25.290Z,22.07
2022-08-30T19:37:52.724Z,22.05
2022-08-30T19:40:20.967Z,22.01
2022-08-30T19:42:49.117Z,22.04
2022-08-30T19:45:21.508Z,22.05
2022-08-30T19:47:49.463Z,22.07
2022-08-30T19:50:17.712Z,22.01
2022-08-30T19:52:52.755Z,21.79
2022-08-30T19:55:24.238Z,21.87
2022-08-30T19:57:56.247Z,21.90
2022-08-30T20:00:23.956Z,21.69
2022-08-30T20:02:52.105Z,21.64
2022-08-30T20:05:21.423Z,21.74
2022-08-30T20:07:51.145Z,21.70
2022-08-30T20:10:20.570Z,21.66
2022-08-30T20:12:50.310Z,21.52
2022-08-30T20:15:18.577Z,21.52
2022-08-30T20:18:03.363Z,21.59
2022-08-30T20:20:36.665Z,21.44
2022-08-30T20:23:05.273Z,21.46
2022-08-30T20:25:33.276Z,21.30
2022-08-30T20:28:01.312Z,21.17
2022-08-30T20:30:28.646Z,21.14
2022-08-30T20:32:57.225Z,21.27
2022-08-30T20:35:24.617Z,21.16
2022-08-30T20:37:51.997Z,21.21
2022-08-30T20:40:20.617Z,21.08
2022-08-30T20:42:48.456Z,21.02
2022-08-30T20:45:17.330Z,21.00
2022-08-30T20:47:44.951Z,21.10
2022-08-30T20:50:16.728Z,21.04
2022-08-30T20:52:44.790Z,21.03
2022-08-30T20:55:13.216Z,20.95
2022-08-30T20:57:40.686Z,20.98
2022-08-30T21:00:13.692Z,20.84
2022-08-30T21:02:46.686Z,20.77
2022-08-30T21:05:17.055Z,20.70
2022-08-30T21:07:45.785Z,20.56
2022-08-30T21:10:14.038Z,20.62
2022-08-30T21:12:42.768Z,20.59
2022-08-30T21:15:26.807Z,20.66
2022-08-30T21:17:58.276Z,20.74
2022-08-30T21:20:25.743Z,20.76
2022-08-30T21:22:53.310Z,20.80
2022-08-30T21:25:20.607Z,20.76
2022-08-30T21:27:47.960Z,20.62
2022-08-30T21:30:15.878Z,20.65
2022-08-30T21:32:43.313Z,20.71
2022-08-30T21:35:29.462Z,20.67
2022-08-30T21:37:56.846Z,20.78
2022-08-30T21:40:24.325Z,20.72
2022-08-30T21:42:52.222Z,20.79
2022-08-30T21:45:19.726Z,20.76
2022-08-30T21:47:47.298Z,20.87
2022-08-30T21:50:14.725Z,21.09
2022-08-30T21:52:42.036Z,21.04
2022-08-30T21:55:09.619Z,20.90
2022-08-30T21:57:36.980Z,20.91
2022-08-30T22:00:08.548Z,21.00
2022-08-30T22:02:35.878Z,20.94
2022-08-30T22:05:03.384Z,20.97
2022-08-30T22:07:30.710Z,21.11
2022-08-30T22:09:59.150Z,21.08
2022-08-30T22:12:26.939Z,21.21
2022-08-30T22:14:54.581Z,21.25
2022-08-30T22:17:21.916Z,21.21
2022-08-30T22:19:49.331Z,21.14
2022-08-30T22:22:16.656Z,21.13
2022-08-30T22:24:43.988Z,21.16
2022-08-30T22:27:11.441Z,21.13
2022-08-30T22:29:39.318Z,21.07
2022-08-30T22:32:06.917Z,20.94
2022-08-30T22:34:34.291Z,20.95
2022-08-30T22:37:01.710Z,20.92
2022-08-30T22:39:29.140Z,20.92
2022-08-30T22:41:56.557Z,20.93
2022-08-30T22:44:24.028Z,20.95
2022-08-30T22:46:51.544Z,20.86
2022-08-30T22:49:18.908Z,20.97
2022-08-30T22:51:46.287Z,21.04
2022-08-30T22:54:13.657Z,21.06
2022-08-30T22:56:41.538Z,21.00
2022-08-30T22:59:08.970Z,20.95
2022-08-30T23:01:39.134Z,20.97
2022-08-30T23:04:08.092Z,20.94
2022-08-30T23:06:35.795Z,20.92
2022-08-30T23:09:04.139Z,20.84
2022-08-30T23:11:33.064Z,20.86
2022-08-30T23:14:02.147Z,20.94
2022-08-30T23:16:29.822Z,20.82
2022-08-30T23:18:57.229Z,20.78
2022-08-30T23:21:27.216Z,20.87
2022-08-30T23:24:13.899Z,20.85
2022-08-30T23:27:00.829Z,20.74
2022-08-30T23:29:49.414Z,20.80
2022-08-30T23:32:35.400Z,20.80
2022-08-30T23:35:25.381Z,20.69
2022-08-30T23:38:17.293Z,20.67
2022-08-30T23:41:03.391Z,20.68
2022-08-30T23:43:49.261Z,20.67
2022-08-30T23:46:35.410Z,20.67
2022-08-30T23:49:21.787Z,20.68
2022-08-30T23:52:07.555Z,20.63
2022-08-30T23:54:54.948Z,20.63
2022-08-30T23:57:44.169Z,20.60
